createdAt,value
2018-12-14T00:00:01.820Z,97193.31
2018-12-14T00:02:32.937Z,97197.71
2018-12-14T00:05:01.902Z,97187.98
2018-12-14T00:07:31.197Z,97190.44
2018-12-14T00:10:00.501Z,97189.08
2018-12-14T00:12:29.391Z,97191.80
2018-12-14T00:14:58.684Z,97197.71
2018-12-14T00:17:27.562Z,97201.53
2018-12-14T00:19:56.429Z,97197.19
2018-12-14T00:22:25.303Z,97198.92
2018-12-14T00:24:54.181Z,97202.69
2018-12-14T00:27:23.709Z,97204.73
2018-12-14T00:29:53.236Z,97198.23
2018-12-14T00:32:22.793Z,97202.21
2018-12-14T00:34:51.664Z,97203.16
2018-12-14T00:37:20.956Z,97205.93
2018-12-14T00:39:49.876Z,97201.17
2018-12-14T00:42:18.750Z,97194.63
2018-12-14T00:44:47.659Z,97200.64
2018-12-14T00:47:16.587Z,97199.65
2018-12-14T00:49:45.447Z,97202.89
2018-12-14T00:52:14.338Z,97202.27
2018-12-14T00:54:43.203Z,97196.45
2018-12-14T00:57:12.068Z,97194.20
2018-12-14T00:59:40.926Z,97200.44
2018-12-14T01:02:15.027Z,97197.08
2018-12-14T01:04:44.322Z,97203.16
2018-12-14T01:07:13.213Z,97201.59
2018-12-14T01:09:42.116Z,97209.44
2018-12-14T01:12:10.997Z,97214.47
2018-12-14T01:14:39.966Z,97215.36
2018-12-14T01:17:09.275Z,97203.89
2018-12-14T01:19:38.092Z,97207.71
2018-12-14T01:22:06.969Z,97215.36
2018-12-14T01:24:35.834Z,97222.58
2018-12-14T01:27:04.706Z,97227.34
2018-12-14T01:29:33.551Z,97223.42
2018-12-14T01:32:02.414Z,97229.13
2018-12-14T01:34:31.263Z,97236.45
2018-12-14T01:37:00.157Z,97230.91
2018-12-14T01:39:29.002Z,97233.42
2018-12-14T01:42:04.671Z,97242.05
2018-12-14T01:44:29.170Z,97242.00
2018-12-14T01:46:58.041Z,97243.78
2018-12-14T01:49:26.929Z,97233.67
2018-12-14T01:51:55.976Z,97234.30
2018-12-14T01:54:24.856Z,97226.77
2018-12-14T01:56:53.985Z,97223.27
2018-12-14T01:59:22.867Z,97221.95
2018-12-14T02:01:51.749Z,97228.86
2018-12-14T02:04:20.649Z,97222.84
2018-12-14T02:06:49.524Z,97220.95
2018-12-14T02:09:18.663Z,97214.78
2018-12-14T02:11:47.553Z,97215.36
2018-12-14T02:14:16.448Z,97213.67
2018-12-14T02:16:45.748Z,97216.50
2018-12-14T02:19:14.596Z,97213.58
2018-12-14T02:21:43.427Z,97213.16
2018-12-14T02:24:12.276Z,97209.96
2018-12-14T02:26:41.112Z,97208.91
2018-12-14T02:29:09.970Z,97212.48
2018-12-14T02:31:38.861Z,97214.36
2018-12-14T02:34:07.986Z,97210.38
2018-12-14T02:36:36.878Z,97203.99
2018-12-14T02:39:06.604Z,97198.18
2018-12-14T02:41:35.623Z,97203.84
2018-12-14T02:44:05.096Z,97194.10
2018-12-14T02:46:34.319Z,97200.64
2018-12-14T02:49:03.170Z,97199.65
2018-12-14T02:51:32.000Z,97200.33
2018-12-14T02:54:01.067Z,97198.81
2018-12-14T02:56:30.411Z,97194.10
2018-12-14T02:58:59.266Z,97201.48
2018-12-14T03:01:28.511Z,97201.22
2018-12-14T03:03:57.584Z,97204.78
2018-12-14T03:06:26.814Z,97211.64
2018-12-14T03:08:55.663Z,97208.81
2018-12-14T03:11:24.478Z,97218.65
2018-12-14T03:13:53.323Z,97220.85
2018-12-14T03:16:22.199Z,97220.12
2018-12-14T03:18:51.018Z,97221.53
2018-12-14T03:21:19.881Z,97219.23
2018-12-14T03:23:48.687Z,97218.02
2018-12-14T03:26:18.023Z,97212.16
2018-12-14T03:28:46.884Z,97222.83
2018-12-14T03:31:15.698Z,97224.14
2018-12-14T03:33:44.756Z,97221.94
2018-12-14T03:36:14.046Z,97218.58
2018-12-14T03:38:42.891Z,97220.89
2018-12-14T03:41:11.867Z,97226.70
2018-12-14T03:43:40.735Z,97227.59
2018-12-14T03:46:09.620Z,97236.16
2018-12-14T03:48:38.729Z,97234.28
2018-12-14T03:51:07.611Z,97230.89
2018-12-14T03:53:36.498Z,97237.75
2018-12-14T03:56:05.709Z,97237.90
2018-12-14T03:58:34.568Z,97231.16
2018-12-14T04:01:03.434Z,97235.84
2018-12-14T04:03:32.367Z,97239.36
2018-12-14T04:06:01.319Z,97237.41
2018-12-14T04:08:30.465Z,97236.41
2018-12-14T04:10:59.365Z,97231.13
2018-12-14T04:13:28.916Z,97237.31
2018-12-14T04:15:58.232Z,97238.20
2018-12-14T04:18:27.094Z,97241.39
2018-12-14T04:20:56.193Z,97244.69
2018-12-14T04:23:25.138Z,97247.48
2018-12-14T04:25:54.019Z,97247.77
2018-12-14T04:28:23.308Z,97254.07
2018-12-14T04:30:52.506Z,97258.61
2018-12-14T04:33:21.595Z,97264.41
2018-12-14T04:35:51.210Z,97265.17
2018-12-14T04:38:20.133Z,97264.53
2018-12-14T04:40:49.085Z,97265.21
2018-12-14T04:43:17.940Z,97262.49
2018-12-14T04:45:47.165Z,97268.26
2018-12-14T04:48:16.303Z,97274.39
2018-12-14T04:50:45.211Z,97270.20
2018-12-14T04:53:14.089Z,97268.62
2018-12-14T04:55:42.997Z,97271.14
2018-12-14T04:58:11.884Z,97268.64
2018-12-14T05:00:40.993Z,97277.48
2018-12-14T05:03:09.890Z,97277.17
2018-12-14T05:05:38.789Z,97277.54
2018-12-14T05:08:07.671Z,97277.33
2018-12-14T05:10:36.553Z,97272.73
2018-12-14T05:13:06.548Z,97269.09
2018-12-14T05:15:35.574Z,97269.61
2018-12-14T05:18:04.481Z,97272.69
2018-12-14T05:20:33.455Z,97280.97
2018-12-14T05:23:02.336Z,97270.71
2018-12-14T05:25:31.648Z,97263.80
2018-12-14T05:28:00.619Z,97275.33
2018-12-14T05:30:30.042Z,97276.68
2018-12-14T05:32:58.933Z,97276.31
2018-12-14T05:35:27.805Z,97282.81
2018-12-14T05:37:56.713Z,97281.98
2018-12-14T05:40:25.849Z,97279.59
2018-12-14T05:42:55.156Z,97278.59
2018-12-14T05:45:24.064Z,97284.97
2018-12-14T05:47:52.975Z,97282.98
2018-12-14T05:50:22.179Z,97287.25
2018-12-14T05:52:51.083Z,97291.31
2018-12-14T05:55:21.244Z,97292.41
2018-12-14T05:57:50.086Z,97295.67
2018-12-14T06:00:19.274Z,97291.41
2018-12-14T06:02:48.155Z,97292.74
2018-12-14T06:05:17.051Z,97297.91
2018-12-14T06:07:45.933Z,97300.98
2018-12-14T06:10:14.837Z,97305.20
2018-12-14T06:12:43.734Z,97305.84
2018-12-14T06:15:12.617Z,97298.39
2018-12-14T06:17:41.508Z,97304.39
2018-12-14T06:20:10.659Z,97309.22
2018-12-14T06:22:39.549Z,97313.05
2018-12-14T06:25:09.201Z,97309.80
2018-12-14T06:27:38.462Z,97304.06
2018-12-14T06:30:07.921Z,97309.97
2018-12-14T06:32:36.796Z,97307.47
2018-12-14T06:35:06.103Z,97312.97
2018-12-14T06:37:35.332Z,97310.49
2018-12-14T06:40:05.006Z,97319.28
2018-12-14T06:42:33.880Z,97323.38
2018-12-14T06:45:04.028Z,97323.47
2018-12-14T06:47:33.575Z,97324.47
2018-12-14T06:50:02.514Z,97320.92
2018-12-14T06:52:32.119Z,97322.12
2018-12-14T06:55:01.096Z,97320.01
2018-12-14T06:57:30.004Z,97324.87
2018-12-14T06:59:58.872Z,97322.45
2018-12-14T07:02:27.748Z,97328.50
2018-12-14T07:04:56.695Z,97328.13
2018-12-14T07:07:25.685Z,97326.42
2018-12-14T07:09:54.596Z,97335.45
2018-12-14T07:12:23.491Z,97330.48
2018-12-14T07:14:52.415Z,97334.14
2018-12-14T07:17:21.299Z,97340.89
2018-12-14T07:19:50.160Z,97342.23
2018-12-14T07:22:19.465Z,97347.64
2018-12-14T07:24:48.656Z,97352.31
2018-12-14T07:27:17.520Z,97351.00
2018-12-14T07:29:46.388Z,97348.42
2018-12-14T07:32:15.240Z,97350.48
2018-12-14T07:34:44.105Z,97351.41
2018-12-14T07:37:13.015Z,97355.34
2018-12-14T07:39:41.946Z,97359.84
2018-12-14T07:42:10.965Z,97358.80
2018-12-14T07:44:40.179Z,97361.19
2018-12-14T07:47:11.829Z,97361.03
2018-12-14T07:49:40.200Z,97363.75
2018-12-14T07:52:09.537Z,97369.25
2018-12-14T07:54:38.546Z,97360.94
2018-12-14T07:57:07.666Z,97366.28
2018-12-14T07:59:36.646Z,97369.08
2018-12-14T08:02:05.593Z,97375.69
2018-12-14T08:04:34.897Z,97378.69
2018-12-14T08:07:04.097Z,97376.44
2018-12-14T08:09:33.305Z,97387.63
2018-12-14T08:12:02.596Z,97385.01
2018-12-14T08:14:31.542Z,97385.40
2018-12-14T08:17:00.375Z,97384.84
2018-12-14T08:19:29.245Z,97393.81
2018-12-14T08:21:58.355Z,97398.30
2018-12-14T08:24:27.248Z,97397.53
2018-12-14T08:26:56.338Z,97399.02
2018-12-14T08:29:25.757Z,97403.41
2018-12-14T08:31:54.971Z,97400.16
2018-12-14T08:34:23.818Z,97403.31
2018-12-14T08:36:52.662Z,97401.93
2018-12-14T08:39:21.806Z,97399.42
2018-12-14T08:41:50.707Z,97406.44
2018-12-14T08:44:19.702Z,97401.69
2018-12-14T08:46:48.882Z,97403.45
2018-12-14T08:49:17.704Z,97406.91
2018-12-14T08:51:46.604Z,97404.12
2018-12-14T08:54:15.498Z,97415.33
2018-12-14T08:56:44.454Z,97419.70
2018-12-14T08:59:13.346Z,97420.09
2018-12-14T09:01:42.219Z,97418.50
2018-12-14T09:04:11.103Z,97425.30
2018-12-14T09:06:40.020Z,97426.97
2018-12-14T09:09:08.980Z,97427.16
2018-12-14T09:11:37.828Z,97423.53
2018-12-14T09:14:06.704Z,97430.25
2018-12-14T09:16:35.604Z,97430.83
2018-12-14T09:19:04.571Z,97435.97
2018-12-14T09:21:33.444Z,97439.24
2018-12-14T09:24:02.275Z,97438.92
2018-12-14T09:26:31.157Z,97436.78
2018-12-14T09:29:00.718Z,97441.55
2018-12-14T09:31:29.929Z,97446.28
2018-12-14T09:33:58.824Z,97450.69
2018-12-14T09:36:27.716Z,97453.97
2018-12-14T09:38:58.116Z,97454.84
2018-12-14T09:41:26.971Z,97456.33
2018-12-14T09:43:55.850Z,97457.81
2018-12-14T09:46:25.459Z,97454.38
2018-12-14T09:48:54.345Z,97451.20
2018-12-14T09:51:23.229Z,97447.83
2018-12-14T09:53:52.324Z,97448.56
2018-12-14T09:56:21.241Z,97452.94
2018-12-14T09:58:50.299Z,97454.44
2018-12-14T10:01:19.191Z,97452.48
2018-12-14T10:03:48.071Z,97458.95
2018-12-14T10:06:17.770Z,97462.68
2018-12-14T10:08:46.631Z,97461.47
2018-12-14T10:11:15.825Z,97458.02
2018-12-14T10:13:45.260Z,97465.30
2018-12-14T10:16:14.507Z,97467.64
2018-12-14T10:18:43.929Z,97462.58
2018-12-14T10:21:12.744Z,97464.28
2018-12-14T10:23:41.860Z,97465.84
2018-12-14T10:26:10.678Z,97464.17
2018-12-14T10:28:39.502Z,97461.84
2018-12-14T10:31:08.303Z,97474.25
2018-12-14T10:33:37.592Z,97470.14
2018-12-14T10:36:06.874Z,97467.72
2018-12-14T10:38:35.668Z,97461.53
2018-12-14T10:41:04.483Z,97471.74
2018-12-14T10:43:33.470Z,97462.21
2018-12-14T10:46:02.807Z,97463.16
2018-12-14T10:48:31.890Z,97460.24
2018-12-14T10:51:00.799Z,97459.14
2018-12-14T10:53:29.607Z,97463.44
2018-12-14T10:55:58.416Z,97466.25
2018-12-14T10:58:27.268Z,97456.48
2018-12-14T11:01:01.617Z,97465.06
2018-12-14T11:03:30.509Z,97468.11
2018-12-14T11:05:59.775Z,97469.59
2018-12-14T11:08:28.660Z,97465.67
2018-12-14T11:10:57.954Z,97464.84
2018-12-14T11:13:27.011Z,97465.17
2018-12-14T11:15:55.883Z,97462.73
2018-12-14T11:18:24.707Z,97470.64
2018-12-14T11:20:53.556Z,97461.85
2018-12-14T11:23:22.622Z,97464.05
2018-12-14T11:25:51.487Z,97463.41
2018-12-14T11:28:20.337Z,97464.05
2018-12-14T11:30:49.242Z,97462.66
2018-12-14T11:33:18.314Z,97458.65
2018-12-14T11:35:47.204Z,97458.65
2018-12-14T11:38:16.119Z,97459.56
2018-12-14T11:40:45.406Z,97465.36
2018-12-14T11:43:14.361Z,97459.93
2018-12-14T11:45:43.729Z,97463.02
2018-12-14T11:48:12.792Z,97456.77
2018-12-14T11:50:41.740Z,97457.97
2018-12-14T11:53:12.765Z,97454.14
2018-12-14T11:55:42.197Z,97448.91
2018-12-14T11:58:11.164Z,97455.45
2018-12-14T12:00:40.452Z,97461.38
2018-12-14T12:03:09.352Z,97458.06
2018-12-14T12:05:38.276Z,97459.00
2018-12-14T12:08:09.158Z,97457.64
2018-12-14T12:10:38.453Z,97455.54
2018-12-14T12:13:07.464Z,97457.60
2018-12-14T12:15:36.481Z,97454.28
2018-12-14T12:18:05.804Z,97453.06
2018-12-14T12:20:36.604Z,97463.42
2018-12-14T12:23:06.040Z,97459.11
2018-12-14T12:25:36.146Z,97460.34
2018-12-14T12:28:05.287Z,97463.62
2018-12-14T12:30:34.154Z,97460.98
2018-12-14T12:33:03.043Z,97457.83
2018-12-14T12:35:31.936Z,97461.38
2018-12-14T12:38:00.956Z,97461.74
2018-12-14T12:40:29.840Z,97463.52
2018-12-14T12:42:58.952Z,97467.88
2018-12-14T12:45:28.047Z,97466.89
2018-12-14T12:47:57.262Z,97460.42
2018-12-14T12:50:26.249Z,97458.38
2018-12-14T12:52:55.121Z,97463.16
2018-12-14T12:55:24.139Z,97456.70
2018-12-14T12:57:53.148Z,97458.76
2018-12-14T13:00:22.278Z,97458.38
2018-12-14T13:02:51.151Z,97462.68
2018-12-14T13:05:20.188Z,97464.52
2018-12-14T13:07:49.121Z,97464.94
2018-12-14T13:10:18.089Z,97465.86
2018-12-14T13:12:47.003Z,97463.91
2018-12-14T13:15:15.939Z,97469.79
2018-12-14T13:17:44.876Z,97465.39
2018-12-14T13:20:14.212Z,97466.09
2018-12-14T13:22:43.220Z,97461.76
2018-12-14T13:25:12.113Z,97467.22
2018-12-14T13:27:41.035Z,97464.55
2018-12-14T13:30:10.352Z,97466.41
2018-12-14T13:32:39.228Z,97464.38
2018-12-14T13:35:08.107Z,97475.45
2018-12-14T13:37:37.118Z,97473.48
2018-12-14T13:40:06.610Z,97479.17
2018-12-14T13:42:35.606Z,97477.87
2018-12-14T13:45:05.017Z,97482.83
2018-12-14T13:47:34.828Z,97481.05
2018-12-14T13:50:05.068Z,97485.44
2018-12-14T13:52:34.034Z,97486.09
2018-12-14T13:55:02.984Z,97491.14
2018-12-14T13:57:31.973Z,97485.48
2018-12-14T14:00:00.882Z,97484.17
2018-12-14T14:02:29.751Z,97490.85
2018-12-14T14:04:58.689Z,97487.36
2018-12-14T14:07:27.641Z,97494.55
2018-12-14T14:09:56.593Z,97496.33
2018-12-14T14:12:30.823Z,97487.44
2018-12-14T14:14:57.194Z,97498.46
2018-12-14T14:17:26.222Z,97499.12
2018-12-14T14:19:55.556Z,97502.53
2018-12-14T14:22:24.829Z,97507.95
2018-12-14T14:24:53.767Z,97510.38
2018-12-14T14:27:23.112Z,97509.16
2018-12-14T14:29:52.519Z,97518.47
2018-12-14T14:32:21.429Z,97509.41
2018-12-14T14:34:50.329Z,97516.08
2018-12-14T14:37:20.225Z,97514.08
2018-12-14T14:39:49.089Z,97522.02
2018-12-14T14:42:19.152Z,97518.42
2018-12-14T14:44:48.023Z,97522.48
2018-12-14T14:47:17.020Z,97526.97
2018-12-14T14:49:45.915Z,97537.53
2018-12-14T14:52:14.800Z,97534.54
2018-12-14T14:54:43.947Z,97542.86
2018-12-14T14:57:13.187Z,97545.09
2018-12-14T14:59:42.113Z,97543.04
2018-12-14T15:02:11.051Z,97546.97
2018-12-14T15:04:41.536Z,97546.31
2018-12-14T15:07:10.399Z,97547.06
2018-12-14T15:09:39.392Z,97553.42
2018-12-14T15:12:08.381Z,97545.66
2018-12-14T15:14:37.269Z,97556.34
2018-12-14T15:17:05.929Z,97546.72
2018-12-14T15:19:34.960Z,97545.10
2018-12-14T15:22:04.790Z,97553.32
2018-12-14T15:24:34.013Z,97561.95
2018-12-14T15:27:03.006Z,97558.97
2018-12-14T15:29:31.945Z,97559.24
2018-12-14T15:32:01.526Z,97566.44
2018-12-14T15:34:30.795Z,97568.87
2018-12-14T15:36:59.676Z,97570.70
2018-12-14T15:39:28.555Z,97570.92
2018-12-14T15:41:57.478Z,97568.12
2018-12-14T15:44:26.350Z,97577.65
2018-12-14T15:46:55.236Z,97573.06
2018-12-14T15:49:24.519Z,97575.59
2018-12-14T15:51:53.424Z,97581.66
2018-12-14T15:54:22.291Z,97582.04
2018-12-14T15:56:51.630Z,97587.27
2018-12-14T15:59:21.158Z,97585.13
2018-12-14T16:01:50.683Z,97581.01
2018-12-14T16:04:19.852Z,97587.64
2018-12-14T16:06:48.718Z,97598.20
2018-12-14T16:09:17.598Z,97590.23
2018-12-14T16:11:46.780Z,97598.36
2018-12-14T16:14:15.953Z,97592.47
2018-12-14T16:16:45.036Z,97595.49
2018-12-14T16:19:14.218Z,97596.68
2018-12-14T16:21:43.409Z,97594.63
2018-12-14T16:24:12.369Z,97603.43
2018-12-14T16:26:41.261Z,97602.11
2018-12-14T16:29:10.577Z,97602.03
2018-12-14T16:31:39.555Z,97603.98
2018-12-14T16:34:08.560Z,97609.41
2018-12-14T16:36:37.495Z,97609.78
2018-12-14T16:39:07.639Z,97610.63
2018-12-14T16:41:36.958Z,97614.83
2018-12-14T16:44:06.268Z,97612.58
2018-12-14T16:46:35.667Z,97618.75
2018-12-14T16:49:05.549Z,97619.88
2018-12-14T16:51:35.424Z,97618.18
2018-12-14T16:54:06.388Z,97629.36
2018-12-14T16:56:36.361Z,97626.86
2018-12-14T16:59:05.276Z,97629.53
2018-12-14T17:01:34.257Z,97632.07
2018-12-14T17:04:03.640Z,97635.91
2018-12-14T17:06:32.983Z,97638.03
2018-12-14T17:09:03.257Z,97641.47
2018-12-14T17:11:32.298Z,97637.00
2018-12-14T17:14:01.575Z,97643.56
2018-12-14T17:16:30.909Z,97644.50
2018-12-14T17:19:00.300Z,97648.63
2018-12-14T17:21:29.599Z,97651.59
2018-12-14T17:23:58.882Z,97654.83
2018-12-14T17:26:27.790Z,97651.77
2018-12-14T17:28:56.659Z,97649.73
2018-12-14T17:31:25.553Z,97655.92
2018-12-14T17:33:54.428Z,97649.19
2018-12-14T17:36:23.855Z,97652.25
2018-12-14T17:38:53.344Z,97652.73
2018-12-14T17:41:23.064Z,97648.05
2018-12-14T17:43:52.034Z,97660.39
2018-12-14T17:46:20.947Z,97652.86
2018-12-14T17:48:50.015Z,97659.86
2018-12-14T17:51:19.589Z,97663.69
2018-12-14T17:53:48.978Z,97666.66
2018-12-14T17:56:17.957Z,97668.52
2018-12-14T17:58:46.992Z,97664.77
2018-12-14T18:01:18.792Z,97665.88
2018-12-14T18:03:47.685Z,97668.58
2018-12-14T18:06:16.805Z,97667.02
2018-12-14T18:08:45.716Z,97677.81
2018-12-14T18:11:14.720Z,97682.28
2018-12-14T18:13:43.644Z,97673.55
2018-12-14T18:16:13.040Z,97684.55
2018-12-14T18:18:41.992Z,97684.44
2018-12-14T18:21:11.137Z,97677.47
2018-12-14T18:23:40.064Z,97675.11
2018-12-14T18:26:09.095Z,97679.13
2018-12-14T18:28:38.023Z,97676.22
2018-12-14T18:31:07.658Z,97677.44
2018-12-14T18:33:36.526Z,97679.84
2018-12-14T18:36:06.024Z,97677.11
2018-12-14T18:38:34.878Z,97683.27
2018-12-14T18:41:04.053Z,97683.22
2018-12-14T18:43:33.029Z,97684.44
2018-12-14T18:46:02.548Z,97684.27
2018-12-14T18:48:31.481Z,97693.06
2018-12-14T18:51:00.411Z,97693.79
2018-12-14T18:53:29.281Z,97695.78
2018-12-14T18:55:58.186Z,97695.82
2018-12-14T18:58:27.429Z,97702.02
2018-12-14T19:00:56.312Z,97701.86
2018-12-14T19:03:25.200Z,97704.27
2018-12-14T19:05:54.175Z,97702.02
2018-12-14T19:08:23.078Z,97704.16
2018-12-14T19:10:52.400Z,97697.36
2018-12-14T19:13:21.309Z,97698.41
2018-12-14T19:15:50.214Z,97700.03
2018-12-14T19:18:19.722Z,97705.61
2018-12-14T19:20:48.643Z,97704.66
2018-12-14T19:23:19.969Z,97696.52
2018-12-14T19:25:48.524Z,97698.17
2018-12-14T19:28:17.443Z,97704.59
2018-12-14T19:30:46.393Z,97704.03
2018-12-14T19:33:15.276Z,97709.94
2018-12-14T19:35:44.536Z,97712.48
2018-12-14T19:38:13.438Z,97717.78
2018-12-14T19:40:42.316Z,97730.81
2018-12-14T19:43:11.623Z,97741.09
2018-12-14T19:45:40.594Z,97745.35
2018-12-14T19:48:09.932Z,97744.89
2018-12-14T19:50:38.945Z,97753.36
2018-12-14T19:53:07.833Z,97756.31
2018-12-14T19:55:37.140Z,97760.18
2018-12-14T19:58:06.129Z,97764.02
2018-12-14T20:00:35.050Z,97761.96
2018-12-14T20:03:04.925Z,97767.65
2018-12-14T20:05:34.434Z,97772.84
2018-12-14T20:08:03.744Z,97769.17
2018-12-14T20:10:32.899Z,97773.42
2018-12-14T20:13:02.411Z,97768.20
2018-12-14T20:15:31.212Z,97766.26
2018-12-14T20:18:00.082Z,97774.09
2018-12-14T20:20:28.949Z,97774.65
2018-12-14T20:22:58.146Z,97779.58
2018-12-14T20:25:26.986Z,97782.45
2018-12-14T20:27:56.183Z,97778.23
2018-12-14T20:30:25.393Z,97787.59
2018-12-14T20:32:55.722Z,97786.45
2018-12-14T20:35:25.298Z,97784.68
2018-12-14T20:37:54.908Z,97785.48
2018-12-14T20:40:24.258Z,97791.13
2018-12-14T20:42:53.161Z,97788.43
2018-12-14T20:45:22.146Z,97784.55
2018-12-14T20:47:51.004Z,97791.63
2018-12-14T20:50:19.876Z,97793.37
2018-12-14T20:52:48.863Z,97796.31
2018-12-14T20:55:18.012Z,97801.47
2018-12-14T20:57:46.956Z,97800.30
2018-12-14T21:00:15.833Z,97799.52
2018-12-14T21:02:44.717Z,97798.71
2018-12-14T21:05:13.835Z,97804.32
2018-12-14T21:07:42.726Z,97798.33
2018-12-14T21:10:12.216Z,97802.09
2018-12-14T21:12:41.127Z,97804.23
2018-12-14T21:15:10.479Z,97803.44
2018-12-14T21:17:39.864Z,97801.16
2018-12-14T21:20:09.431Z,97800.11
2018-12-14T21:22:38.632Z,97803.53
2018-12-14T21:25:07.928Z,97804.24
2018-12-14T21:27:36.879Z,97802.59
2018-12-14T21:30:07.455Z,97799.56
2018-12-14T21:32:36.345Z,97796.14
2018-12-14T21:35:05.746Z,97805.70
2018-12-14T21:37:34.740Z,97805.16
2018-12-14T21:40:04.524Z,97803.50
2018-12-14T21:42:34.843Z,97808.15
2018-12-14T21:45:04.605Z,97811.55
2018-12-14T21:47:34.026Z,97807.94
2018-12-14T21:50:03.712Z,97811.23
2018-12-14T21:52:32.599Z,97806.34
2018-12-14T21:55:01.693Z,97802.04
2018-12-14T21:57:31.078Z,97795.50
2018-12-14T22:00:00.122Z,97803.27
2018-12-14T22:02:29.211Z,97796.02
2018-12-14T22:04:58.169Z,97798.72
2018-12-14T22:07:27.072Z,97797.54
2018-12-14T22:09:56.013Z,97798.34
2018-12-14T22:12:24.888Z,97800.83
2018-12-14T22:14:53.786Z,97801.88
2018-12-14T22:17:22.804Z,97799.27
2018-12-14T22:19:51.730Z,97806.73
2018-12-14T22:22:20.619Z,97804.36
2018-12-14T22:24:49.925Z,97800.02
2018-12-14T22:27:18.740Z,97799.48
2018-12-14T22:29:47.587Z,97796.31
2018-12-14T22:32:16.431Z,97806.22
2018-12-14T22:34:45.303Z,97803.27
2018-12-14T22:37:14.212Z,97793.95
2018-12-14T22:39:43.467Z,97789.78
2018-12-14T22:42:12.287Z,97797.45
2018-12-14T22:44:41.138Z,97796.56
2018-12-14T22:47:09.962Z,97792.86
2018-12-14T22:49:39.235Z,97799.64
2018-12-14T22:52:08.527Z,97797.58
2018-12-14T22:54:37.456Z,97795.69
2018-12-14T22:57:06.493Z,97808.84
2018-12-14T22:59:35.704Z,97808.59
2018-12-14T23:02:05.330Z,97813.64
2018-12-14T23:04:34.217Z,97810.48
2018-12-14T23:07:03.312Z,97812.24
2018-12-14T23:09:32.376Z,97804.23
2018-12-14T23:12:01.204Z,97801.41
2018-12-14T23:14:30.093Z,97797.89
2018-12-14T23:16:59.161Z,97803.34
2018-12-14T23:19:27.998Z,97798.41
2018-12-14T23:21:56.842Z,97798.08
2018-12-14T23:24:25.718Z,97802.71
2018-12-14T23:26:54.815Z,97801.11
2018-12-14T23:29:23.721Z,97802.88
2018-12-14T23:31:52.622Z,97797.63
2018-12-14T23:34:21.499Z,97797.10
2018-12-14T23:36:50.445Z,97796.03
2018-12-14T23:39:19.305Z,97798.65
2018-12-14T23:41:48.342Z,97794.78
2018-12-14T23:44:17.229Z,97799.56
2018-12-14T23:46:46.154Z,97795.36
2018-12-14T23:49:15.456Z,97798.44
2018-12-14T23:51:44.354Z,97804.05
2018-12-14T23:54:13.219Z,97806.80
2018-12-14T23:56:42.097Z,97807.36
2018-12-14T23:59:11.017Z,97813.89
